sensor_id;sensor_type;location;lat;lon;timestamp;P1;durP1;ratioP1;P2;durP2;ratioP2
82034;SDS011;71599;49.892;18.914;2023-08-21T00:03:03;11.15;;;9.95;;
82034;SDS011;71599;49.892;18.914;2023-08-21T00:08:04;11.35;;;10.15;;
82034;SDS011;71599;49.892;18.914;2023-08-21T00:13:06;12.13;;;10.00;;
82034;SDS011;71599;49.892;18.914;2023-08-21T00:18:08;12.02;;;10.75;;
82034;SDS011;71599;49.892;18.914;2023-08-21T00:23:09;12.57;;;11.27;;
82034;SDS011;71599;49.892;18.914;2023-08-21T00:28:10;13.00;;;10.55;;
82034;SDS011;71599;49.892;18.914;2023-08-21T00:33:13;13.43;;;11.02;;
82034;SDS011;71599;49.892;18.914;2023-08-21T00:38:14;11.50;;;10.30;;
82034;SDS011;71599;49.892;18.914;2023-08-21T00:43:15;13.23;;;11.05;;
82034;SDS011;71599;49.892;18.914;2023-08-21T00:48:17;12.18;;;10.70;;
82034;SDS011;71599;49.892;18.914;2023-08-21T00:53:19;12.98;;;10.65;;
82034;SDS011;71599;49.892;18.914;2023-08-21T00:58:20;12.10;;;9.68;;
82034;SDS011;71599;49.892;18.914;2023-08-21T01:03:22;13.05;;;10.95;;
82034;SDS011;71599;49.892;18.914;2023-08-21T01:08:25;10.55;;;9.45;;
82034;SDS011;71599;49.892;18.914;2023-08-21T01:13:34;13.15;;;11.05;;
82034;SDS011;71599;49.892;18.914;2023-08-21T01:18:46;11.63;;;9.95;;
82034;SDS011;71599;49.892;18.914;2023-08-21T01:23:49;12.75;;;10.68;;
82034;SDS011;71599;49.892;18.914;2023-08-21T01:28:50;11.43;;;10.23;;
82034;SDS011;71599;49.892;18.914;2023-08-21T01:33:54;11.57;;;9.93;;
82034;SDS011;71599;49.892;18.914;2023-08-21T01:38:59;12.38;;;10.98;;
82034;SDS011;71599;49.892;18.914;2023-08-21T01:44:01;12.25;;;10.77;;
82034;SDS011;71599;49.892;18.914;2023-08-21T01:49:02;12.98;;;11.20;;
82034;SDS011;71599;49.892;18.914;2023-08-21T01:54:04;13.30;;;10.23;;
82034;SDS011;71599;49.892;18.914;2023-08-21T01:59:05;11.75;;;10.25;;
82034;SDS011;71599;49.892;18.914;2023-08-21T02:04:06;11.77;;;10.52;;
82034;SDS011;71599;49.892;18.914;2023-08-21T02:09:09;15.85;;;10.77;;
82034;SDS011;71599;49.892;18.914;2023-08-21T02:14:10;10.48;;;9.15;;
82034;SDS011;71599;49.892;18.914;2023-08-21T02:19:11;11.40;;;10.20;;
82034;SDS011;71599;49.892;18.914;2023-08-21T02:24:13;12.90;;;11.48;;
82034;SDS011;71599;49.892;18.914;2023-08-21T02:29:14;12.43;;;11.10;;
82034;SDS011;71599;49.892;18.914;2023-08-21T02:34:15;12.55;;;11.25;;
82034;SDS011;71599;49.892;18.914;2023-08-21T02:39:17;11.95;;;10.27;;
82034;SDS011;71599;49.892;18.914;2023-08-21T02:44:18;12.77;;;11.18;;
82034;SDS011;71599;49.892;18.914;2023-08-21T02:49:19;13.63;;;12.00;;
82034;SDS011;71599;49.892;18.914;2023-08-21T02:54:22;15.10;;;11.60;;
82034;SDS011;71599;49.892;18.914;2023-08-21T02:59:23;13.82;;;10.85;;
82034;SDS011;71599;49.892;18.914;2023-08-21T03:04:24;15.60;;;11.10;;
82034;SDS011;71599;49.892;18.914;2023-08-21T03:09:26;11.85;;;10.65;;
82034;SDS011;71599;49.892;18.914;2023-08-21T03:14:27;11.50;;;9.85;;
82034;SDS011;71599;49.892;18.914;2023-08-21T03:19:28;11.13;;;10.00;;
82034;SDS011;71599;49.892;18.914;2023-08-21T03:24:30;11.45;;;9.75;;
82034;SDS011;71599;49.892;18.914;2023-08-21T03:29:31;11.05;;;9.85;;
82034;SDS011;71599;49.892;18.914;2023-08-21T03:34:32;9.98;;;8.98;;
82034;SDS011;71599;49.892;18.914;2023-08-21T03:39:35;9.48;;;8.48;;
82034;SDS011;71599;49.892;18.914;2023-08-21T03:44:37;11.60;;;10.20;;
82034;SDS011;71599;49.892;18.914;2023-08-21T03:49:38;11.10;;;9.95;;
82034;SDS011;71599;49.892;18.914;2023-08-21T03:54:41;12.90;;;11.57;;
82034;SDS011;71599;49.892;18.914;2023-08-21T03:59:42;11.10;;;9.15;;
82034;SDS011;71599;49.892;18.914;2023-08-21T04:04:43;9.20;;;8.35;;
82034;SDS011;71599;49.892;18.914;2023-08-21T04:09:45;9.68;;;8.77;;
82034;SDS011;71599;49.892;18.914;2023-08-21T04:14:46;9.20;;;8.32;;
82034;SDS011;71599;49.892;18.914;2023-08-21T04:19:47;10.93;;;9.20;;
82034;SDS011;71599;49.892;18.914;2023-08-21T04:24:49;10.38;;;9.20;;
82034;SDS011;71599;49.892;18.914;2023-08-21T04:29:51;11.25;;;9.43;;
82034;SDS011;71599;49.892;18.914;2023-08-21T04:34:53;12.70;;;9.70;;
82034;SDS011;71599;49.892;18.914;2023-08-21T04:39:56;12.75;;;9.50;;
82034;SDS011;71599;49.892;18.914;2023-08-21T04:44:56;12.63;;;9.75;;
82034;SDS011;71599;49.892;18.914;2023-08-21T04:49:57;10.98;;;9.88;;
82034;SDS011;71599;49.892;18.914;2023-08-21T04:55:00;12.10;;;8.93;;
82034;SDS011;71599;49.892;18.914;2023-08-21T05:00:01;13.65;;;10.93;;
82034;SDS011;71599;49.892;18.914;2023-08-21T05:05:02;12.73;;;10.45;;
82034;SDS011;71599;49.892;18.914;2023-08-21T05:10:05;14.57;;;10.82;;
82034;SDS011;71599;49.892;18.914;2023-08-21T05:15:07;11.43;;;10.30;;
82034;SDS011;71599;49.892;18.914;2023-08-21T05:20:09;12.57;;;10.68;;
82034;SDS011;71599;49.892;18.914;2023-08-21T05:25:12;12.13;;;10.68;;
82034;SDS011;71599;49.892;18.914;2023-08-21T05:30:14;13.50;;;11.27;;
82034;SDS011;71599;49.892;18.914;2023-08-21T05:35:15;11.57;;;10.48;;
82034;SDS011;71599;49.892;18.914;2023-08-21T05:40:18;11.10;;;9.98;;
82034;SDS011;71599;49.892;18.914;2023-08-21T05:45:19;11.90;;;10.68;;
82034;SDS011;71599;49.892;18.914;2023-08-21T05:50:20;11.25;;;10.00;;
82034;SDS011;71599;49.892;18.914;2023-08-21T05:55:22;10.57;;;9.57;;
82034;SDS011;71599;49.892;18.914;2023-08-21T06:00:23;10.38;;;9.32;;
82034;SDS011;71599;49.892;18.914;2023-08-21T06:05:24;8.85;;;8.02;;
82034;SDS011;71599;49.892;18.914;2023-08-21T06:10:27;10.18;;;9.20;;
82034;SDS011;71599;49.892;18.914;2023-08-21T06:15:28;10.50;;;9.45;;
82034;SDS011;71599;49.892;18.914;2023-08-21T06:20:28;10.13;;;9.23;;
82034;SDS011;71599;49.892;18.914;2023-08-21T06:25:31;11.65;;;9.27;;
82034;SDS011;71599;49.892;18.914;2023-08-21T06:30:33;10.27;;;9.27;;
82034;SDS011;71599;49.892;18.914;2023-08-21T06:35:35;13.23;;;10.38;;
82034;SDS011;71599;49.892;18.914;2023-08-21T06:40:38;10.20;;;9.30;;
82034;SDS011;71599;49.892;18.914;2023-08-21T06:45:39;11.02;;;9.82;;
82034;SDS011;71599;49.892;18.914;2023-08-21T06:50:40;10.90;;;9.88;;
82034;SDS011;71599;49.892;18.914;2023-08-21T06:55:44;11.45;;;10.20;;
82034;SDS011;71599;49.892;18.914;2023-08-21T07:00:45;11.63;;;10.20;;
82034;SDS011;71599;49.892;18.914;2023-08-21T07:05:46;10.82;;;9.68;;
82034;SDS011;71599;49.892;18.914;2023-08-21T07:10:48;10.90;;;9.80;;
82034;SDS011;71599;49.892;18.914;2023-08-21T07:15:52;10.57;;;9.57;;
82034;SDS011;71599;49.892;18.914;2023-08-21T07:20:53;10.85;;;9.80;;
82034;SDS011;71599;49.892;18.914;2023-08-21T07:25:56;12.13;;;10.63;;
82034;SDS011;71599;49.892;18.914;2023-08-21T07:30:57;12.65;;;11.45;;
82034;SDS011;71599;49.892;18.914;2023-08-21T07:36:00;11.55;;;9.98;;
82034;SDS011;71599;49.892;18.914;2023-08-21T07:41:04;11.20;;;10.05;;
82034;SDS011;71599;49.892;18.914;2023-08-21T07:46:06;13.30;;;10.00;;
82034;SDS011;71599;49.892;18.914;2023-08-21T07:51:08;10.63;;;9.43;;
82034;SDS011;71599;49.892;18.914;2023-08-21T07:56:11;12.77;;;9.43;;
82034;SDS011;71599;49.892;18.914;2023-08-21T08:01:12;10.25;;;8.90;;
82034;SDS011;71599;49.892;18.914;2023-08-21T08:06:13;10.65;;;9.25;;
82034;SDS011;71599;49.892;18.914;2023-08-21T08:11:15;12.27;;;9.82;;
82034;SDS011;71599;49.892;18.914;2023-08-21T08:16:16;11.10;;;9.95;;
82034;SDS011;71599;49.892;18.914;2023-08-21T08:21:18;14.15;;;10.43;;
82034;SDS011;71599;49.892;18.914;2023-08-21T08:26:20;13.65;;;12.10;;
82034;SDS011;71599;49.892;18.914;2023-08-21T08:31:21;12.30;;;11.15;;
82034;SDS011;71599;49.892;18.914;2023-08-21T08:36:22;15.20;;;13.38;;
82034;SDS011;71599;49.892;18.914;2023-08-21T08:41:33;13.48;;;12.27;;
82034;SDS011;71599;49.892;18.914;2023-08-21T08:46:43;13.75;;;12.35;;
82034;SDS011;71599;49.892;18.914;2023-08-21T08:51:44;12.35;;;11.10;;
82034;SDS011;71599;49.892;18.914;2023-08-21T08:56:48;12.60;;;11.48;;
82034;SDS011;71599;49.892;18.914;2023-08-21T09:01:49;12.93;;;11.50;;
82034;SDS011;71599;49.892;18.914;2023-08-21T09:06:50;12.95;;;11.75;;
82034;SDS011;71599;49.892;18.914;2023-08-21T09:11:52;14.25;;;12.80;;
82034;SDS011;71599;49.892;18.914;2023-08-21T09:17:00;14.35;;;12.63;;
82034;SDS011;71599;49.892;18.914;2023-08-21T09:22:08;13.98;;;12.75;;
82034;SDS011;71599;49.892;18.914;2023-08-21T09:27:15;14.90;;;13.15;;
82034;SDS011;71599;49.892;18.914;2023-08-21T09:32:17;15.50;;;12.80;;
82034;SDS011;71599;49.892;18.914;2023-08-21T09:37:17;12.82;;;11.52;;
82034;SDS011;71599;49.892;18.914;2023-08-21T09:42:20;14.13;;;12.73;;
82034;SDS011;71599;49.892;18.914;2023-08-21T09:47:21;13.15;;;11.85;;
82034;SDS011;71599;49.892;18.914;2023-08-21T09:52:26;13.73;;;12.35;;
82034;SDS011;71599;49.892;18.914;2023-08-21T09:57:29;16.52;;;13.65;;
82034;SDS011;71599;49.892;18.914;2023-08-21T10:02:32;14.82;;;13.00;;
82034;SDS011;71599;49.892;18.914;2023-08-21T10:07:33;13.85;;;12.40;;
82034;SDS011;71599;49.892;18.914;2023-08-21T10:12:36;13.95;;;12.60;;
82034;SDS011;71599;49.892;18.914;2023-08-21T10:17:37;14.85;;;13.13;;
82034;SDS011;71599;49.892;18.914;2023-08-21T10:22:42;16.13;;;14.52;;
82034;SDS011;71599;49.892;18.914;2023-08-21T10:27:46;15.05;;;13.68;;
82034;SDS011;71599;49.892;18.914;2023-08-21T10:32:50;14.15;;;12.88;;
82034;SDS011;71599;49.892;18.914;2023-08-21T10:38:11;16.90;;;15.18;;
82034;SDS011;71599;49.892;18.914;2023-08-21T10:48:41;15.52;;;14.10;;
82034;SDS011;71599;49.892;18.914;2023-08-21T10:53:42;14.68;;;13.38;;
82034;SDS011;71599;49.892;18.914;2023-08-21T10:58:44;16.73;;;15.32;;
82034;SDS011;71599;49.892;18.914;2023-08-21T11:03:46;14.18;;;12.68;;
82034;SDS011;71599;49.892;18.914;2023-08-21T11:08:50;15.68;;;14.27;;
82034;SDS011;71599;49.892;18.914;2023-08-21T11:13:54;16.17;;;14.68;;
82034;SDS011;71599;49.892;18.914;2023-08-21T11:18:55;14.52;;;13.10;;
82034;SDS011;71599;49.892;18.914;2023-08-21T11:23:56;14.45;;;13.02;;
82034;SDS011;71599;49.892;18.914;2023-08-21T11:28:58;16.90;;;13.35;;
82034;SDS011;71599;49.892;18.914;2023-08-21T11:33:59;16.38;;;12.50;;
82034;SDS011;71599;49.892;18.914;2023-08-21T11:39:01;14.70;;;13.20;;
82034;SDS011;71599;49.892;18.914;2023-08-21T11:44:04;14.30;;;12.90;;
82034;SDS011;71599;49.892;18.914;2023-08-21T11:49:05;13.43;;;12.07;;
82034;SDS011;71599;49.892;18.914;2023-08-21T11:54:06;13.50;;;12.20;;
82034;SDS011;71599;49.892;18.914;2023-08-21T11:59:09;15.35;;;12.15;;
82034;SDS011;71599;49.892;18.914;2023-08-21T12:04:16;13.45;;;12.25;;
82034;SDS011;71599;49.892;18.914;2023-08-21T12:09:17;13.88;;;12.55;;
82034;SDS011;71599;49.892;18.914;2023-08-21T12:14:19;13.93;;;12.52;;
82034;SDS011;71599;49.892;18.914;2023-08-21T12:19:21;15.77;;;14.07;;
82034;SDS011;71599;49.892;18.914;2023-08-21T12:24:23;15.18;;;13.25;;
82034;SDS011;71599;49.892;18.914;2023-08-21T12:29:26;15.55;;;13.95;;
82034;SDS011;71599;49.892;18.914;2023-08-21T12:34:27;15.43;;;13.60;;
82034;SDS011;71599;49.892;18.914;2023-08-21T12:39:28;16.63;;;14.35;;
82034;SDS011;71599;49.892;18.914;2023-08-21T12:44:30;17.05;;;15.02;;
82034;SDS011;71599;49.892;18.914;2023-08-21T12:49:31;17.08;;;15.32;;
82034;SDS011;71599;49.892;18.914;2023-08-21T12:54:32;15.60;;;13.82;;
82034;SDS011;71599;49.892;18.914;2023-08-21T12:59:35;14.88;;;13.45;;
82034;SDS011;71599;49.892;18.914;2023-08-21T13:04:36;16.10;;;13.43;;
82034;SDS011;71599;49.892;18.914;2023-08-21T13:09:37;16.35;;;14.73;;
82034;SDS011;71599;49.892;18.914;2023-08-21T13:14:39;14.55;;;13.13;;
82034;SDS011;71599;49.892;18.914;2023-08-21T13:19:40;12.35;;;11.10;;
82034;SDS011;71599;49.892;18.914;2023-08-21T13:24:41;13.45;;;12.25;;
82034;SDS011;71599;49.892;18.914;2023-08-21T13:29:45;13.52;;;11.10;;
82034;SDS011;71599;49.892;18.914;2023-08-21T13:34:46;14.30;;;12.95;;
82034;SDS011;71599;49.892;18.914;2023-08-21T13:39:47;12.02;;;10.80;;
82034;SDS011;71599;49.892;18.914;2023-08-21T13:44:50;12.75;;;11.55;;
82034;SDS011;71599;49.892;18.914;2023-08-21T13:49:51;16.38;;;11.52;;
82034;SDS011;71599;49.892;18.914;2023-08-21T13:54:52;12.63;;;11.38;;
82034;SDS011;71599;49.892;18.914;2023-08-21T13:59:55;13.00;;;11.27;;
82034;SDS011;71599;49.892;18.914;2023-08-21T14:04:56;12.80;;;11.50;;
82034;SDS011;71599;49.892;18.914;2023-08-21T14:09:57;11.90;;;10.80;;
82034;SDS011;71599;49.892;18.914;2023-08-21T14:15:00;12.52;;;11.32;;
82034;SDS011;71599;49.892;18.914;2023-08-21T14:20:01;12.73;;;11.52;;
82034;SDS011;71599;49.892;18.914;2023-08-21T14:25:02;12.43;;;11.13;;
82034;SDS011;71599;49.892;18.914;2023-08-21T14:30:06;12.20;;;11.00;;
82034;SDS011;71599;49.892;18.914;2023-08-21T14:35:08;12.23;;;10.95;;
82034;SDS011;71599;49.892;18.914;2023-08-21T14:40:10;10.90;;;9.60;;
82034;SDS011;71599;49.892;18.914;2023-08-21T14:45:13;10.65;;;9.65;;
82034;SDS011;71599;49.892;18.914;2023-08-21T14:50:14;11.23;;;10.25;;
82034;SDS011;71599;49.892;18.914;2023-08-21T14:55:15;12.32;;;10.90;;
82034;SDS011;71599;49.892;18.914;2023-08-21T15:00:17;11.93;;;10.70;;
82034;SDS011;71599;49.892;18.914;2023-08-21T15:05:20;13.85;;;11.50;;
82034;SDS011;71599;49.892;18.914;2023-08-21T15:10:21;12.90;;;11.13;;
82034;SDS011;71599;49.892;18.914;2023-08-21T15:15:24;12.23;;;10.95;;
82034;SDS011;71599;49.892;18.914;2023-08-21T15:20:25;12.95;;;11.38;;
82034;SDS011;71599;49.892;18.914;2023-08-21T15:25:26;12.98;;;11.77;;
82034;SDS011;71599;49.892;18.914;2023-08-21T15:30:28;11.20;;;9.93;;
82034;SDS011;71599;49.892;18.914;2023-08-21T15:35:29;16.45;;;11.35;;
82034;SDS011;71599;49.892;18.914;2023-08-21T15:40:30;14.57;;;12.95;;
82034;SDS011;71599;49.892;18.914;2023-08-21T15:45:32;12.95;;;11.82;;
82034;SDS011;71599;49.892;18.914;2023-08-21T15:50:33;12.27;;;10.95;;
82034;SDS011;71599;49.892;18.914;2023-08-21T15:55:34;11.13;;;10.07;;
82034;SDS011;71599;49.892;18.914;2023-08-21T16:00:36;11.85;;;10.75;;
82034;SDS011;71599;49.892;18.914;2023-08-21T16:05:38;13.40;;;12.00;;
82034;SDS011;71599;49.892;18.914;2023-08-21T16:10:40;19.50;;;13.63;;
82034;SDS011;71599;49.892;18.914;2023-08-21T16:15:43;12.38;;;11.07;;
82034;SDS011;71599;49.892;18.914;2023-08-21T16:20:44;17.98;;;13.57;;
82034;SDS011;71599;49.892;18.914;2023-08-21T16:25:45;14.60;;;13.15;;
82034;SDS011;71599;49.892;18.914;2023-08-21T16:30:47;18.15;;;13.90;;
82034;SDS011;71599;49.892;18.914;2023-08-21T16:35:48;16.30;;;14.57;;
82034;SDS011;71599;49.892;18.914;2023-08-21T16:40:49;18.25;;;14.20;;
82034;SDS011;71599;49.892;18.914;2023-08-21T16:45:52;18.77;;;16.23;;
82034;SDS011;71599;49.892;18.914;2023-08-21T16:50:54;36.63;;;33.20;;
82034;SDS011;71599;49.892;18.914;2023-08-21T16:55:55;19.52;;;17.48;;
82034;SDS011;71599;49.892;18.914;2023-08-21T17:00:57;41.03;;;36.83;;
82034;SDS011;71599;49.892;18.914;2023-08-21T17:05:59;38.40;;;34.90;;
82034;SDS011;71599;49.892;18.914;2023-08-21T17:11:00;23.30;;;20.85;;
82034;SDS011;71599;49.892;18.914;2023-08-21T17:16:02;23.50;;;19.77;;
82034;SDS011;71599;49.892;18.914;2023-08-21T17:21:03;24.90;;;22.20;;
82034;SDS011;71599;49.892;18.914;2023-08-21T17:26:05;24.92;;;22.40;;
82034;SDS011;71599;49.892;18.914;2023-08-21T17:31:07;30.00;;;21.77;;
82034;SDS011;71599;49.892;18.914;2023-08-21T17:36:08;33.20;;;27.85;;
82034;SDS011;71599;49.892;18.914;2023-08-21T17:41:09;32.88;;;28.85;;
82034;SDS011;71599;49.892;18.914;2023-08-21T17:46:11;28.45;;;24.42;;
82034;SDS011;71599;49.892;18.914;2023-08-21T17:51:12;29.25;;;25.98;;
82034;SDS011;71599;49.892;18.914;2023-08-21T17:56:13;24.40;;;21.92;;
82034;SDS011;71599;49.892;18.914;2023-08-21T18:01:16;27.10;;;23.02;;
82034;SDS011;71599;49.892;18.914;2023-08-21T18:06:17;26.27;;;23.02;;
82034;SDS011;71599;49.892;18.914;2023-08-21T18:11:18;27.80;;;23.63;;
82034;SDS011;71599;49.892;18.914;2023-08-21T18:16:20;24.02;;;21.35;;
82034;SDS011;71599;49.892;18.914;2023-08-21T18:21:21;27.95;;;24.25;;
82034;SDS011;71599;49.892;18.914;2023-08-21T18:26:22;26.90;;;22.15;;
82034;SDS011;71599;49.892;18.914;2023-08-21T18:31:24;26.92;;;23.02;;
82034;SDS011;71599;49.892;18.914;2023-08-21T18:36:25;25.17;;;21.83;;
82034;SDS011;71599;49.892;18.914;2023-08-21T18:41:26;26.20;;;23.40;;
82034;SDS011;71599;49.892;18.914;2023-08-21T18:46:29;25.08;;;22.38;;
82034;SDS011;71599;49.892;18.914;2023-08-21T18:51:31;24.42;;;20.58;;
82034;SDS011;71599;49.892;18.914;2023-08-21T18:56:32;22.10;;;19.77;;
82034;SDS011;71599;49.892;18.914;2023-08-21T19:01:34;42.50;;;31.42;;
82034;SDS011;71599;49.892;18.914;2023-08-21T19:06:35;24.58;;;21.85;;
82034;SDS011;71599;49.892;18.914;2023-08-21T19:11:36;22.02;;;19.63;;
82034;SDS011;71599;49.892;18.914;2023-08-21T19:16:41;24.25;;;21.75;;
82034;SDS011;71599;49.892;18.914;2023-08-21T19:21:42;21.92;;;19.67;;
82034;SDS011;71599;49.892;18.914;2023-08-21T19:26:43;23.13;;;20.27;;
82034;SDS011;71599;49.892;18.914;2023-08-21T19:31:50;22.50;;;19.48;;
82034;SDS011;71599;49.892;18.914;2023-08-21T19:36:53;23.55;;;21.05;;
82034;SDS011;71599;49.892;18.914;2023-08-21T19:41:54;21.83;;;19.52;;
82034;SDS011;71599;49.892;18.914;2023-08-21T19:47:01;20.33;;;18.15;;
82034;SDS011;71599;49.892;18.914;2023-08-21T19:52:03;27.17;;;22.20;;
82034;SDS011;71599;49.892;18.914;2023-08-21T19:57:04;23.65;;;20.65;;
82034;SDS011;71599;49.892;18.914;2023-08-21T20:02:07;21.20;;;18.83;;
82034;SDS011;71599;49.892;18.914;2023-08-21T20:07:08;21.92;;;17.88;;
82034;SDS011;71599;49.892;18.914;2023-08-21T20:12:09;22.27;;;19.95;;
82034;SDS011;71599;49.892;18.914;2023-08-21T20:17:11;21.05;;;18.80;;
82034;SDS011;71599;49.892;18.914;2023-08-21T20:22:12;23.27;;;19.30;;
82034;SDS011;71599;49.892;18.914;2023-08-21T20:27:13;21.08;;;18.88;;
82034;SDS011;71599;49.892;18.914;2023-08-21T20:32:16;24.38;;;21.00;;
82034;SDS011;71599;49.892;18.914;2023-08-21T20:37:17;20.55;;;18.42;;
82034;SDS011;71599;49.892;18.914;2023-08-21T20:42:18;20.20;;;18.05;;
82034;SDS011;71599;49.892;18.914;2023-08-21T20:47:20;17.80;;;16.00;;
82034;SDS011;71599;49.892;18.914;2023-08-21T20:52:21;18.63;;;16.67;;
82034;SDS011;71599;49.892;18.914;2023-08-21T20:57:22;19.83;;;17.67;;
82034;SDS011;71599;49.892;18.914;2023-08-21T21:02:24;18.05;;;16.15;;
82034;SDS011;71599;49.892;18.914;2023-08-21T21:07:25;18.23;;;15.98;;
82034;SDS011;71599;49.892;18.914;2023-08-21T21:12:26;16.33;;;14.00;;
82034;SDS011;71599;49.892;18.914;2023-08-21T21:17:29;15.60;;;13.48;;
82034;SDS011;71599;49.892;18.914;2023-08-21T21:22:30;16.48;;;14.77;;
82034;SDS011;71599;49.892;18.914;2023-08-21T21:27:31;17.90;;;16.15;;
82034;SDS011;71599;49.892;18.914;2023-08-21T21:32:33;18.23;;;16.17;;
82034;SDS011;71599;49.892;18.914;2023-08-21T21:37:34;16.88;;;14.98;;
82034;SDS011;71599;49.892;18.914;2023-08-21T21:42:36;15.75;;;14.13;;
82034;SDS011;71599;49.892;18.914;2023-08-21T21:47:38;21.92;;;19.55;;
82034;SDS011;71599;49.892;18.914;2023-08-21T21:52:40;18.52;;;15.88;;
82034;SDS011;71599;49.892;18.914;2023-08-21T21:57:41;22.58;;;18.65;;
82034;SDS011;71599;49.892;18.914;2023-08-21T22:02:43;16.80;;;15.10;;
82034;SDS011;71599;49.892;18.914;2023-08-21T22:07:44;17.00;;;14.95;;
82034;SDS011;71599;49.892;18.914;2023-08-21T22:12:45;22.38;;;15.25;;
82034;SDS011;71599;49.892;18.914;2023-08-21T22:17:47;18.00;;;15.65;;
82034;SDS011;71599;49.892;18.914;2023-08-21T22:22:48;18.15;;;16.15;;
82034;SDS011;71599;49.892;18.914;2023-08-21T22:27:49;20.02;;;17.00;;
82034;SDS011;71599;49.892;18.914;2023-08-21T22:32:52;24.00;;;20.05;;
82034;SDS011;71599;49.892;18.914;2023-08-21T22:37:53;23.77;;;19.15;;
82034;SDS011;71599;49.892;18.914;2023-08-21T22:42:55;29.23;;;22.17;;
82034;SDS011;71599;49.892;18.914;2023-08-21T22:47:58;23.23;;;18.10;;
82034;SDS011;71599;49.892;18.914;2023-08-21T22:52:59;22.50;;;19.75;;
82034;SDS011;71599;49.892;18.914;2023-08-21T22:58:00;23.30;;;19.75;;
82034;SDS011;71599;49.892;18.914;2023-08-21T23:03:03;24.42;;;20.10;;
82034;SDS011;71599;49.892;18.914;2023-08-21T23:08:04;25.20;;;19.73;;
82034;SDS011;71599;49.892;18.914;2023-08-21T23:13:05;21.83;;;17.60;;
82034;SDS011;71599;49.892;18.914;2023-08-21T23:18:08;20.17;;;16.85;;
82034;SDS011;71599;49.892;18.914;2023-08-21T23:23:09;18.13;;;16.33;;
82034;SDS011;71599;49.892;18.914;2023-08-21T23:28:09;23.55;;;17.98;;
82034;SDS011;71599;49.892;18.914;2023-08-21T23:33:12;17.70;;;15.80;;
82034;SDS011;71599;49.892;18.914;2023-08-21T23:38:13;20.17;;;16.90;;
82034;SDS011;71599;49.892;18.914;2023-08-21T23:43:14;19.80;;;15.73;;
82034;SDS011;71599;49.892;18.914;2023-08-21T23:48:16;21.50;;;17.35;;
82034;SDS011;71599;49.892;18.914;2023-08-21T23:53:17;23.58;;;19.48;;
82034;SDS011;71599;49.892;18.914;2023-08-21T23:58:18;30.88;;;22.70;;
